createdAt,value
2022-09-05T00:01:48.848Z,73.67
2022-09-05T00:04:25.762Z,74.31
2022-09-05T00:07:03.457Z,73.97
2022-09-05T00:09:56.881Z,73.20
2022-09-05T00:12:26.304Z,73.32
2022-09-05T00:15:16.396Z,73.52
2022-09-05T00:20:40.685Z,73.42
2022-09-05T00:24:18.845Z,72.73
2022-09-05T00:24:30.242Z,73.57
2022-09-05T00:27:03.589Z,73.92
2022-09-05T00:31:05.771Z,74.21
2022-09-05T00:33:20.157Z,73.26
2022-09-05T00:36:01.057Z,73.21
2022-09-05T00:38:36.572Z,73.33
2022-09-05T00:41:08.969Z,73.71
2022-09-05T00:43:40.022Z,73.13
2022-09-05T00:46:10.384Z,73.42
2022-09-05T00:48:47.064Z,73.47
2022-09-05T00:51:29.380Z,73.30
2022-09-05T00:54:41.333Z,73.17
2022-09-05T00:57:35.755Z,73.33
2022-09-05T01:00:17.236Z,73.34
2022-09-05T01:03:16.373Z,73.32
2022-09-05T01:06:02.877Z,73.23
2022-09-05T01:08:46.827Z,73.41
2022-09-05T01:11:21.024Z,72.97
2022-09-05T01:13:56.026Z,73.62
2022-09-05T01:16:29.315Z,73.21
2022-09-05T01:19:08.085Z,73.19
2022-09-05T01:22:01.096Z,73.54
2022-09-05T01:24:46.258Z,73.24
2022-09-05T01:28:52.625Z,73.38
2022-09-05T01:30:36.604Z,73.12
2022-09-05T01:33:15.724Z,73.03
2022-09-05T01:36:03.341Z,73.16
2022-09-05T01:38:40.488Z,73.05
2022-09-05T01:41:26.258Z,73.19
2022-09-05T01:44:11.365Z,73.24
2022-09-05T01:46:51.534Z,72.93
2022-09-05T01:49:25.769Z,73.19
2022-09-05T01:52:17.707Z,73.31
2022-09-05T01:54:54.180Z,73.05
2022-09-05T01:57:31.512Z,73.14
2022-09-05T02:00:07.633Z,73.12
2022-09-05T02:02:50.299Z,73.23
2022-09-05T02:05:48.662Z,73.14
2022-09-05T02:08:41.771Z,73.34
2022-09-05T02:11:11.390Z,72.89
2022-09-05T02:14:00.959Z,73.42
2022-09-05T02:16:36.576Z,73.20
2022-09-05T02:19:12.096Z,73.14
2022-09-05T02:21:57.240Z,73.23
2022-09-05T02:24:34.192Z,73.45
2022-09-05T02:27:30.185Z,73.38
2022-09-05T02:30:09.889Z,73.22
2022-09-05T02:32:52.638Z,73.01
2022-09-05T02:35:26.845Z,73.01
2022-09-05T02:39:47.531Z,72.95
2022-09-05T02:45:10.559Z,73.38
2022-09-05T02:45:20.765Z,72.97
2022-09-05T02:46:35.457Z,73.37
2022-09-05T02:49:47.271Z,73.20
2022-09-05T02:57:24.058Z,73.49
2022-09-05T02:58:04.494Z,73.27
2022-09-05T02:58:07.130Z,73.18
2022-09-05T03:00:41.042Z,73.72
2022-09-05T03:03:20.522Z,73.76
2022-09-05T03:05:57.807Z,73.51
2022-09-05T03:08:45.192Z,73.30
2022-09-05T03:12:01.082Z,73.32
2022-09-05T03:15:18.593Z,73.19
2022-09-05T03:18:23.523Z,73.29
2022-09-05T03:21:29.297Z,73.44
2022-09-05T03:24:38.486Z,73.27
2022-09-05T03:27:33.798Z,73.61
2022-09-05T03:30:15.491Z,73.59
2022-09-05T03:33:09.517Z,73.08
2022-09-05T03:36:13.324Z,73.26
2022-09-05T03:39:24.893Z,73.61
2022-09-05T03:42:19.387Z,73.53
2022-09-05T03:45:02.793Z,73.34
2022-09-05T03:47:52.700Z,73.21
2022-09-05T03:57:04.973Z,73.33
2022-09-05T03:57:28.078Z,73.25
2022-09-05T03:57:32.649Z,73.58
2022-09-05T04:00:11.786Z,73.58
2022-09-05T04:08:08.852Z,73.44
2022-09-05T04:08:18.933Z,73.43
2022-09-05T04:08:47.396Z,73.49
2022-09-05T04:11:20.781Z,73.01
2022-09-05T04:13:53.804Z,73.38
2022-09-05T04:16:26.310Z,73.20
2022-09-05T04:18:57.536Z,73.26
2022-09-05T04:21:29.057Z,73.38
2022-09-05T04:24:10.037Z,73.37
2022-09-05T04:26:54.558Z,73.11
2022-09-05T04:29:36.389Z,73.09
2022-09-05T04:32:18.697Z,73.22
2022-09-05T04:34:59.790Z,73.23
2022-09-05T04:37:48.427Z,73.06
2022-09-05T04:40:51.902Z,73.29
2022-09-05T04:43:29.637Z,73.46
2022-09-05T04:46:08.760Z,73.20
2022-09-05T04:48:42.172Z,73.14
2022-09-05T04:51:23.502Z,73.44
2022-09-05T04:54:30.214Z,73.24
2022-09-05T04:57:13.882Z,73.79
2022-09-05T05:05:01.077Z,73.32
2022-09-05T05:06:11.749Z,73.48
2022-09-05T05:06:19.943Z,73.32
2022-09-05T05:08:38.631Z,73.57
2022-09-05T05:16:29.927Z,73.11
2022-09-05T05:17:59.391Z,73.55
2022-09-05T05:18:11.154Z,73.61
2022-09-05T05:20:42.674Z,73.75
2022-09-05T05:22:49.065Z,73.93
2022-09-05T05:25:18.878Z,73.78
2022-09-05T05:27:50.522Z,73.46
2022-09-05T05:30:27.569Z,73.72
2022-09-05T05:32:56.857Z,74.07
2022-09-05T05:35:30.186Z,74.48
2022-09-05T05:38:08.010Z,73.87
2022-09-05T05:40:50.930Z,74.02
2022-09-05T05:43:23.733Z,73.78
2022-09-05T05:45:58.473Z,73.88
2022-09-05T05:48:33.323Z,74.07
2022-09-05T05:51:38.334Z,74.31
2022-09-05T05:54:25.183Z,74.54
2022-09-05T05:57:27.468Z,74.64
2022-09-05T06:00:04.365Z,74.79
2022-09-05T06:03:27.560Z,74.87
2022-09-05T06:06:22.590Z,74.65
2022-09-05T06:14:05.226Z,74.83
2022-09-05T06:14:56.255Z,74.82
2022-09-05T06:15:31.227Z,75.48
2022-09-05T06:18:38.344Z,75.78
2022-09-05T06:22:09.001Z,76.37
2022-09-05T06:25:24.961Z,76.66
2022-09-05T06:28:18.542Z,76.38
2022-09-05T06:30:57.247Z,76.14
2022-09-05T06:33:54.800Z,78.48
2022-09-05T06:36:38.202Z,77.19
2022-09-05T06:39:14.728Z,78.28
2022-09-05T06:41:52.281Z,78.41
2022-09-05T06:44:40.331Z,79.78
2022-09-05T06:47:23.742Z,81.05
2022-09-05T06:50:27.594Z,83.04
2022-09-05T06:53:39.141Z,83.47
2022-09-05T06:56:37.357Z,81.57
2022-09-05T06:59:39.101Z,83.51
2022-09-05T07:02:17.170Z,81.78
2022-09-05T07:05:37.594Z,82.96
2022-09-05T07:07:57.804Z,83.09
2022-09-05T07:10:45.934Z,82.97
2022-09-05T07:13:20.513Z,83.02
2022-09-05T07:15:57.373Z,84.16
2022-09-05T07:18:32.667Z,83.16
2022-09-05T07:21:17.696Z,84.31
2022-09-05T07:24:10.229Z,85.10
2022-09-05T07:26:53.602Z,83.62
2022-09-05T07:29:29.592Z,83.88
2022-09-05T07:31:59.529Z,84.41
2022-09-05T07:34:30.213Z,83.32
2022-09-05T07:37:14.630Z,84.34
2022-09-05T07:39:47.564Z,83.83
2022-09-05T07:42:20.686Z,85.73
2022-09-05T07:44:56.370Z,85.38
2022-09-05T07:47:30.017Z,84.84
2022-09-05T07:51:20.283Z,84.39
2022-09-05T07:56:49.969Z,84.40
2022-09-05T07:57:01.037Z,84.76
2022-09-05T07:58:41.423Z,84.88
2022-09-05T08:01:13.742Z,83.79
2022-09-05T08:03:43.404Z,84.33
2022-09-05T08:06:46.429Z,83.79
2022-09-05T08:10:02.263Z,83.56
2022-09-05T08:12:09.801Z,84.57
2022-09-05T08:14:46.252Z,84.04
2022-09-05T08:17:21.087Z,83.25
2022-09-05T08:20:10.497Z,83.73
2022-09-05T08:22:52.656Z,83.21
2022-09-05T08:25:27.567Z,83.32
2022-09-05T08:28:13.676Z,83.46
2022-09-05T08:30:56.710Z,82.66
2022-09-05T08:33:32.307Z,82.36
2022-09-05T08:36:04.713Z,81.88
2022-09-05T08:38:40.325Z,82.12
2022-09-05T08:41:17.377Z,82.16
2022-09-05T08:46:36.519Z,81.15
2022-09-05T08:46:50.513Z,81.95
2022-09-05T08:49:44.120Z,81.72
2022-09-05T08:52:26.103Z,82.14
2022-09-05T08:55:08.420Z,81.52
2022-09-05T08:58:03.745Z,81.34
2022-09-05T09:00:36.157Z,81.09
2022-09-05T09:03:12.721Z,80.25
2022-09-05T09:06:16.030Z,80.39
2022-09-05T09:09:11.774Z,81.13
2022-09-05T09:11:44.116Z,81.05
2022-09-05T09:14:43.664Z,80.51
2022-09-05T09:17:26.218Z,79.45
2022-09-05T09:20:10.936Z,78.96
2022-09-05T09:22:48.701Z,78.96
2022-09-05T09:25:26.457Z,79.46
2022-09-05T09:28:48.243Z,79.48
2022-09-05T09:31:08.149Z,78.47
2022-09-05T09:33:42.596Z,78.43
2022-09-05T09:36:27.973Z,77.79
2022-09-05T09:39:38.885Z,77.55
2022-09-05T09:42:32.429Z,77.25
2022-09-05T09:45:33.325Z,77.43
2022-09-05T09:48:47.842Z,76.33
2022-09-05T09:51:46.112Z,76.41
2022-09-05T09:54:39.793Z,76.46
2022-09-05T09:57:48.680Z,74.73
2022-09-05T10:00:21.276Z,75.25
2022-09-05T10:10:32.754Z,75.27
2022-09-05T10:10:46.168Z,74.30
2022-09-05T10:10:54.003Z,72.74
2022-09-05T10:13:08.749Z,73.45
2022-09-05T10:15:54.916Z,73.76
2022-09-05T10:18:48.698Z,72.63
2022-09-05T10:21:33.866Z,70.83
2022-09-05T10:24:35.324Z,71.50
2022-09-05T10:27:33.440Z,71.07
2022-09-05T10:30:08.761Z,71.03
2022-09-05T10:35:04.766Z,70.75
2022-09-05T10:35:35.737Z,69.68
2022-09-05T10:38:12.241Z,67.55
2022-09-05T10:40:51.418Z,67.58
2022-09-05T10:43:38.811Z,68.32
2022-09-05T10:46:39.687Z,68.38
2022-09-05T10:49:09.123Z,67.13
2022-09-05T10:51:51.890Z,67.84
2022-09-05T10:54:30.380Z,67.74
2022-09-05T10:57:08.469Z,67.75
2022-09-05T11:02:23.405Z,62.74
2022-09-05T11:02:48.296Z,64.35
2022-09-05T11:05:24.635Z,65.04
2022-09-05T11:08:01.877Z,65.10
2022-09-05T11:10:35.694Z,62.39
2022-09-05T11:13:12.253Z,63.05
2022-09-05T11:16:04.295Z,63.92
2022-09-05T11:18:57.306Z,63.20
2022-09-05T11:21:40.421Z,61.09
2022-09-05T11:24:24.128Z,61.68
2022-09-05T11:27:24.657Z,63.08
2022-09-05T11:29:53.464Z,63.17
2022-09-05T11:39:47.982Z,61.83
2022-09-05T11:39:54.022Z,61.89
2022-09-05T11:39:55.343Z,61.80
2022-09-05T11:42:11.010Z,61.85
2022-09-05T11:45:05.707Z,62.84
2022-09-05T11:48:18.882Z,62.72
2022-09-05T11:51:02.034Z,60.92
2022-09-05T11:53:57.351Z,61.47
2022-09-05T11:56:55.752Z,59.43
2022-09-05T12:00:32.567Z,58.07
2022-09-05T12:03:58.145Z,58.77
2022-09-05T12:06:36.048Z,59.72
2022-09-05T12:09:20.266Z,59.63
2022-09-05T12:12:30.005Z,57.75
2022-09-05T12:15:07.244Z,54.75
2022-09-05T12:17:48.158Z,56.06
2022-09-05T12:20:26.373Z,57.03
2022-09-05T12:22:58.645Z,58.40
2022-09-05T12:27:38.512Z,57.96
2022-09-05T12:29:26.806Z,58.79
2022-09-05T12:32:50.453Z,58.58
2022-09-05T12:36:07.609Z,58.58
2022-09-05T12:40:55.203Z,59.90
2022-09-05T12:41:36.874Z,59.74
2022-09-05T12:44:34.825Z,59.48
2022-09-05T12:48:26.811Z,57.56
2022-09-05T12:51:11.096Z,57.08
2022-09-05T12:53:45.649Z,56.07
2022-09-05T12:59:38.806Z,55.64
2022-09-05T13:02:55.443Z,56.64
2022-09-05T13:03:13.740Z,56.73
2022-09-05T13:05:03.469Z,55.82
2022-09-05T13:07:40.344Z,56.27
2022-09-05T13:14:50.516Z,56.43
2022-09-05T13:14:54.124Z,56.03
2022-09-05T13:15:58.941Z,57.20
2022-09-05T13:18:37.346Z,56.39
2022-09-05T13:21:09.825Z,55.61
2022-09-05T13:23:42.748Z,55.27
2022-09-05T13:26:17.505Z,56.27
2022-09-05T13:29:00.206Z,55.26
2022-09-05T13:38:12.568Z,54.90
2022-09-05T13:38:14.908Z,53.89
2022-09-05T13:38:37.797Z,54.06
2022-09-05T13:40:58.045Z,55.88
2022-09-05T13:43:32.341Z,55.52
2022-09-05T13:46:11.653Z,56.35
2022-09-05T13:51:47.876Z,55.65
2022-09-05T13:54:32.942Z,56.14
2022-09-05T13:57:26.811Z,54.35
2022-09-05T14:00:48.503Z,53.58
2022-09-05T14:03:43.707Z,53.67
2022-09-05T14:06:46.949Z,54.22
2022-09-05T14:09:35.507Z,53.53
2022-09-05T14:12:15.214Z,53.30
2022-09-05T14:17:56.637Z,53.81
2022-09-05T14:20:49.392Z,53.83
2022-09-05T14:23:19.702Z,53.31
2022-09-05T14:25:52.767Z,53.12
2022-09-05T14:28:26.718Z,52.06
2022-09-05T14:33:45.329Z,53.37
2022-09-05T14:37:40.299Z,52.95
2022-09-05T14:37:48.157Z,52.30
2022-09-05T14:40:30.346Z,52.14
2022-09-05T14:43:30.879Z,52.81
2022-09-05T14:46:17.731Z,51.60
2022-09-05T14:49:05.533Z,53.56
2022-09-05T14:51:46.711Z,54.17
2022-09-05T15:02:46.422Z,53.99
2022-09-05T15:02:53.003Z,52.87
2022-09-05T15:03:03.949Z,53.11
2022-09-05T15:05:41.654Z,53.54
2022-09-05T15:10:06.461Z,54.68
2022-09-05T15:12:15.440Z,54.74
2022-09-05T15:13:57.080Z,55.30
2022-09-05T15:16:26.420Z,56.09
2022-09-05T15:18:56.285Z,57.28
2022-09-05T15:21:33.520Z,57.15
2022-09-05T15:24:14.361Z,56.68
2022-09-05T15:26:51.974Z,56.12
2022-09-05T15:29:23.601Z,56.95
2022-09-05T15:31:53.251Z,58.26
2022-09-05T15:34:38.740Z,60.33
2022-09-05T15:37:23.206Z,59.71
2022-09-05T15:40:01.924Z,60.89
2022-09-05T15:42:33.037Z,61.44
2022-09-05T15:45:10.743Z,61.76
2022-09-05T15:47:40.450Z,62.51
2022-09-05T15:50:21.341Z,63.15
2022-09-05T15:52:55.723Z,63.49
2022-09-05T15:55:25.983Z,63.06
2022-09-05T15:57:56.713Z,63.39
2022-09-05T16:00:41.094Z,63.43
2022-09-05T16:06:08.353Z,64.60
2022-09-05T16:10:33.512Z,66.58
2022-09-05T16:10:46.269Z,66.93
2022-09-05T16:14:45.240Z,65.32
2022-09-05T16:23:13.233Z,65.13
2022-09-05T16:23:24.302Z,64.94
2022-09-05T16:23:39.586Z,65.46
2022-09-05T16:26:12.834Z,67.35
2022-09-05T16:28:44.159Z,66.63
2022-09-05T16:31:20.080Z,66.13
2022-09-05T16:33:48.385Z,66.16
2022-09-05T16:36:20.755Z,65.95
2022-09-05T16:38:52.525Z,68.02
2022-09-05T16:41:29.326Z,66.82
2022-09-05T16:44:01.444Z,66.55
2022-09-05T16:46:36.738Z,66.39
2022-09-05T16:49:11.759Z,65.85
2022-09-05T16:51:44.610Z,65.99
2022-09-05T16:54:20.994Z,65.75
2022-09-05T16:56:54.859Z,65.36
2022-09-05T16:59:24.622Z,65.16
2022-09-05T17:02:07.809Z,66.10
2022-09-05T17:05:04.921Z,66.46
2022-09-05T17:07:46.049Z,67.77
2022-09-05T17:10:20.744Z,68.73
2022-09-05T17:12:54.164Z,69.35
2022-09-05T17:15:26.119Z,69.58
2022-09-05T17:18:22.733Z,69.23
2022-09-05T17:20:50.734Z,70.78
2022-09-05T17:29:17.193Z,71.82
2022-09-05T17:29:27.606Z,71.78
2022-09-05T17:29:27.607Z,71.07
2022-09-05T17:32:03.769Z,71.88
2022-09-05T17:35:16.708Z,71.50
2022-09-05T17:38:19.608Z,71.17
2022-09-05T17:41:28.840Z,70.99
2022-09-05T17:44:00.946Z,70.77
2022-09-05T17:46:32.437Z,70.95
2022-09-05T17:49:17.694Z,71.45
2022-09-05T17:52:18.199Z,71.70
2022-09-05T17:54:49.981Z,71.68
2022-09-05T17:57:51.393Z,71.71
2022-09-05T18:01:01.210Z,71.65
2022-09-05T18:04:16.634Z,71.57
2022-09-05T18:06:59.289Z,71.24
2022-09-05T18:10:11.927Z,71.18
2022-09-05T18:13:31.268Z,70.54
2022-09-05T18:16:04.491Z,70.89
2022-09-05T18:19:29.054Z,70.39
2022-09-05T18:21:24.699Z,70.83
2022-09-05T18:24:01.988Z,71.05
2022-09-05T18:26:38.331Z,70.80
2022-09-05T18:32:02.815Z,71.34
2022-09-05T18:34:50.243Z,71.78
2022-09-05T18:37:52.516Z,72.06
2022-09-05T18:40:39.303Z,71.92
2022-09-05T18:43:14.176Z,71.91
2022-09-05T18:45:53.071Z,72.06
2022-09-05T18:48:30.025Z,72.31
2022-09-05T18:51:15.145Z,72.10
2022-09-05T18:53:47.459Z,72.52
2022-09-05T18:56:37.029Z,72.72
2022-09-05T18:59:23.966Z,72.29
2022-09-05T19:01:58.726Z,72.07
2022-09-05T19:04:38.919Z,72.32
2022-09-05T19:07:12.918Z,72.09
2022-09-05T19:10:00.241Z,71.93
2022-09-05T19:12:39.073Z,72.04
2022-09-05T19:15:18.993Z,72.08
2022-09-05T19:17:56.130Z,71.96
2022-09-05T19:21:11.933Z,72.25
2022-09-05T19:23:44.238Z,72.13
2022-09-05T19:26:12.710Z,72.23
2022-09-05T19:36:50.527Z,72.09
2022-09-05T19:37:04.108Z,72.21
2022-09-05T19:37:10.874Z,71.68
2022-09-05T19:37:29.363Z,71.97
2022-09-05T19:47:03.168Z,70.91
2022-09-05T19:47:36.099Z,71.86
2022-09-05T19:47:55.488Z,70.71
2022-09-05T19:48:34.854Z,71.94
2022-09-05T19:51:17.599Z,72.38
2022-09-05T19:53:48.862Z,72.42
2022-09-05T19:56:40.740Z,72.12
2022-09-05T19:59:19.303Z,72.12
2022-09-05T20:01:48.925Z,72.97
2022-09-05T20:04:18.858Z,72.64
2022-09-05T20:06:47.475Z,72.72
2022-09-05T20:09:17.133Z,73.35
2022-09-05T20:11:49.830Z,73.07
2022-09-05T20:14:23.504Z,73.35
2022-09-05T20:16:55.897Z,73.43
2022-09-05T20:19:28.526Z,72.67
2022-09-05T20:21:58.315Z,73.34
2022-09-05T20:24:27.895Z,73.24
2022-09-05T20:26:55.989Z,73.16
2022-09-05T20:29:49.302Z,72.73
2022-09-05T20:32:38.525Z,72.62
2022-09-05T20:38:58.341Z,72.00
2022-09-05T20:43:10.183Z,73.16
2022-09-05T20:43:27.110Z,73.72
2022-09-05T20:43:53.646Z,73.51
2022-09-05T20:50:44.378Z,73.48
2022-09-05T20:54:14.953Z,74.06
2022-09-05T20:54:19.906Z,72.55
2022-09-05T20:55:38.305Z,73.24
2022-09-05T20:58:11.670Z,73.55
2022-09-05T21:01:19.540Z,72.90
2022-09-05T21:03:36.719Z,74.12
2022-09-05T21:06:19.957Z,72.61
2022-09-05T21:08:47.645Z,73.68
2022-09-05T21:11:15.367Z,73.72
2022-09-05T21:13:52.426Z,73.80
2022-09-05T21:16:23.166Z,73.64
2022-09-05T21:18:52.271Z,73.76
2022-09-05T21:21:29.255Z,72.90
2022-09-05T21:24:16.396Z,74.09
2022-09-05T21:26:46.988Z,72.44
2022-09-05T21:29:17.497Z,73.20
2022-09-05T21:31:49.064Z,74.32
2022-09-05T21:34:24.813Z,73.65
2022-09-05T21:37:01.207Z,72.87
2022-09-05T21:39:46.475Z,73.02
2022-09-05T21:47:33.747Z,74.28
2022-09-05T21:47:43.654Z,73.73
2022-09-05T21:48:06.976Z,72.92
2022-09-05T21:50:42.414Z,74.17
2022-09-05T21:59:13.292Z,72.70
2022-09-05T21:59:24.053Z,72.89
2022-09-05T21:59:26.137Z,74.11
2022-09-05T22:01:53.670Z,74.67
2022-09-05T22:04:22.418Z,74.42
2022-09-05T22:06:53.051Z,73.05
2022-09-05T22:09:23.565Z,74.50
2022-09-05T22:11:51.235Z,74.25
2022-09-05T22:14:19.052Z,74.08
2022-09-05T22:16:47.607Z,74.65
2022-09-05T22:19:22.814Z,73.76
2022-09-05T22:21:52.742Z,72.85
2022-09-05T22:24:23.390Z,72.74
2022-09-05T22:27:11.555Z,72.20
2022-09-05T22:29:41.183Z,73.42
2022-09-05T22:32:09.076Z,73.03
2022-09-05T22:34:36.694Z,74.38
2022-09-05T22:37:04.403Z,73.75
2022-09-05T22:39:37.823Z,73.14
2022-09-05T22:42:10.643Z,72.36
2022-09-05T22:44:39.755Z,73.69
2022-09-05T22:47:09.090Z,72.57
2022-09-05T22:49:37.121Z,72.34
2022-09-05T22:52:05.853Z,72.67
2022-09-05T22:54:35.024Z,74.75
2022-09-05T22:57:02.750Z,72.12
2022-09-05T22:59:30.460Z,73.30
2022-09-05T23:01:58.143Z,73.48
2022-09-05T23:04:25.921Z,73.30
2022-09-05T23:06:53.745Z,74.65
2022-09-05T23:09:21.489Z,72.66
2022-09-05T23:11:50.386Z,72.73
2022-09-05T23:14:17.977Z,73.83
2022-09-05T23:16:45.581Z,73.41
2022-09-05T23:19:13.219Z,73.30
2022-09-05T23:21:40.894Z,72.99
2022-09-05T23:24:08.551Z,74.04
2022-09-05T23:26:36.102Z,73.00
2022-09-05T23:29:05.015Z,73.56
2022-09-05T23:31:32.800Z,72.95
2022-09-05T23:34:00.454Z,73.36
2022-09-05T23:36:28.114Z,73.61
2022-09-05T23:38:55.723Z,73.35
2022-09-05T23:41:23.583Z,73.95
2022-09-05T23:43:51.326Z,74.25
2022-09-05T23:46:20.277Z,74.28
2022-09-05T23:48:47.992Z,72.80
2022-09-05T23:51:15.658Z,72.72
2022-09-05T23:53:43.839Z,72.87
2022-09-05T23:56:12.207Z,73.97
2022-09-05T23:58:39.962Z,73.04
